»·PEaware :: N6507W 1Z1-L92

N6507W :: 1Z1-L92

FLIGHT INFORMATION

Flight Status: Arrived
Operator: Privately registered:
United States
More flights under this callsign
Pilot: Jukka N. (18040)
Aircraft: CESSNA 208 CARAVAN
(C208)
More flights by this aircraft type
Origin: 1Z1 Grand Canyon Bar Ten
United States
Destination: L92 Alamo Landing
United States
More flights between these airports :: More routes between these airports
Route:
File this flight plan on PilotEdge
Remarks:
Altitude:
(Current/Filed)
7,500ft
Speed:
(Current/Filed)
160kts
Departed: 15-Mar-19 01:24 PM
Arrived: 15-Mar-19 02:21 PM
Distance/Time
Traveled:
115nm/0:57
Distance/Time
To Go:
Arrived

Flight Plot

Page will automatically refresh every two minutes.

Flight plan parsing failed; only flown route is shown


Map Options




Map Legend


Flown Route
Filed Route
Departure Airport
Arrival Airport
Navaid (VOR, NDB)
Fix

Horizontal Profiles

Position Reports

Time Latitude Longitude Heading Altitude Ground
Speed
15-Mar-19 13:07 36.263532 -113.231181 191 4105ft 0kts
15-Mar-19 13:08 36.263532 -113.231181 191 4105ft 0kts
15-Mar-19 13:09 36.263532 -113.231181 191 4105ft 0kts
15-Mar-19 13:10 36.263532 -113.231181 191 4105ft 0kts
15-Mar-19 13:11 36.263532 -113.231181 191 4105ft 0kts
15-Mar-19 13:12 36.263532 -113.231181 191 4105ft 0kts
15-Mar-19 13:13 36.263532 -113.231181 191 4105ft 0kts
15-Mar-19 13:14 36.263532 -113.231181 191 4105ft 0kts
15-Mar-19 13:15 36.263532 -113.231181 191 4105ft 0kts
15-Mar-19 13:16 36.263532 -113.231181 191 4105ft 0kts
15-Mar-19 13:17 36.263532 -113.231181 191 4105ft 0kts
15-Mar-19 13:18 36.263176 -113.231422 194 4105ft 10kts
15-Mar-19 13:19 36.259915 -113.231183 175 4105ft 12kts
15-Mar-19 13:20 36.256126 -113.230842 174 4105ft 13kts
15-Mar-19 13:21 36.253939 -113.230540 350 4104ft 2kts
15-Mar-19 13:22 36.254152 -113.230710 358 4105ft 0kts
15-Mar-19 13:23 36.255644 -113.230834 174 4105ft 74kts
15-Mar-19 13:24 36.223323 -113.228228 161 5241ft 129kts
15-Mar-19 13:25 36.187612 -113.214333 153 6336ft 135kts
15-Mar-19 13:26 36.154016 -113.189581 140 6999ft 139kts
15-Mar-19 13:27 36.131468 -113.216019 305 7471ft 170kts
15-Mar-19 13:28 36.174000 -113.232520 356 7500ft 163kts
15-Mar-19 13:29 36.218289 -113.224362 15 7494ft 163kts
15-Mar-19 13:30 36.263807 -113.233157 318 7499ft 178kts
15-Mar-19 13:31 36.291139 -113.286289 302 7489ft 183kts
15-Mar-19 13:32 36.302324 -113.347975 275 7491ft 184kts
15-Mar-19 13:33 36.312495 -113.409293 306 7488ft 179kts
15-Mar-19 13:34 36.354015 -113.438292 340 7489ft 177kts
15-Mar-19 13:35 36.396513 -113.468794 321 7612ft 179kts
15-Mar-19 13:36 36.432793 -113.486448 56 7465ft 155kts
15-Mar-19 13:37 36.474634 -113.490817 350 7462ft 167kts
15-Mar-19 13:38 36.498013 -113.457907 78 7465ft 152kts
15-Mar-19 13:39 36.486778 -113.407557 92 7496ft 153kts
15-Mar-19 13:40 36.509899 -113.381567 339 7501ft 173kts
15-Mar-19 13:41 36.551635 -113.412095 320 7496ft 181kts
15-Mar-19 13:42 36.586717 -113.456961 318 7465ft 181kts
15-Mar-19 13:43 36.621325 -113.502492 318 7466ft 179kts
15-Mar-19 13:44 36.654898 -113.547470 318 7546ft 175kts
15-Mar-19 13:45 36.678162 -113.600708 284 7546ft 185kts
15-Mar-19 13:46 36.687281 -113.664332 283 7545ft 185kts
15-Mar-19 13:47 36.698155 -113.727006 290 7544ft 183kts
15-Mar-19 13:48 36.717176 -113.784215 311 7530ft 175kts
15-Mar-19 13:49 36.734747 -113.840673 291 7899ft 162kts
15-Mar-19 13:50 36.746616 -113.892509 290 8885ft 149kts
15-Mar-19 13:51 36.757656 -113.944022 287 9547ft 168kts
15-Mar-19 13:52 36.767124 -114.005936 277 9546ft 187kts
15-Mar-19 13:53 36.765716 -114.071569 260 9543ft 189kts
15-Mar-19 13:54 36.751928 -114.135305 256 9548ft 189kts
15-Mar-19 13:55 36.759398 -114.195431 303 9543ft 182kts
15-Mar-19 13:56 36.785420 -114.250234 321 9545ft 179kts
15-Mar-19 13:57 36.821567 -114.292360 323 9545ft 176kts
15-Mar-19 13:58 36.857771 -114.334226 323 9550ft 176kts
15-Mar-19 13:59 36.894039 -114.376139 323 9546ft 176kts
15-Mar-19 14:00 36.930210 -114.418326 323 9546ft 176kts
15-Mar-19 14:01 36.966157 -114.460603 323 9547ft 177kts
15-Mar-19 14:02 37.002127 -114.502918 323 9547ft 177kts
15-Mar-19 14:03 37.038147 -114.545282 323 9547ft 177kts
15-Mar-19 14:04 37.074118 -114.587604 323 9547ft 176kts
15-Mar-19 14:05 37.110281 -114.630111 323 9549ft 177kts
15-Mar-19 14:06 37.146280 -114.672451 323 9526ft 176kts
15-Mar-19 14:07 37.182229 -114.714668 323 9545ft 176kts
15-Mar-19 14:08 37.214543 -114.762028 307 9530ft 183kts
15-Mar-19 14:09 37.240335 -114.813482 309 8519ft 163kts
15-Mar-19 14:10 37.264508 -114.860410 309 7546ft 152kts
15-Mar-19 14:11 37.283436 -114.900544 296 7256ft 128kts
15-Mar-19 14:12 37.294891 -114.945394 282 6447ft 136kts
15-Mar-19 14:13 37.303408 -114.992033 279 5738ft 132kts
15-Mar-19 14:14 37.301365 -115.036223 257 5159ft 124kts
15-Mar-19 14:15 37.296868 -115.075722 271 4792ft 109kts
15-Mar-19 14:17 37.299370 -115.114563 272 4650ft 107kts
15-Mar-19 14:18 37.309475 -115.151121 308 4697ft 117kts
15-Mar-19 14:19 37.338691 -115.175434 332 4168ft 130kts
15-Mar-19 14:20 37.360489 -115.192045 329 3724ft 62kts
15-Mar-19 14:21 37.364215 -115.193029 233 3724ft 2kts

Navigation Log

Ident Type
Flight plan parsing failed, navigation log unavailable